Terminal Aerodrome Forecast
Issued by NWS Nashville, TN

Home | Current Version | Previous Version | Text Only | Print | Product List | Glossary On
Versions: 1 2 3 4 5 6 7 8 9 10 11 12 13 14 15 16 17 18 19 20 21 22 23 24
038
FTUS44 KOHX 222326
TAFCSV
TAF
KCSV 222326Z 2300/2324 15005KT P6SM BKN025
     FM230700 17002KT 4SM BR OVC015
     FM230900 17002KT 4SM BR OVC007
     FM231500 18004KT P6SM OVC015
     FM231900 18008KT P6SM OVC025=

USA.gov is the U.S. government's official web portal to all federal, state and local government web resources and services.